aviador You're here:

WBKT Decoded Metar

KUDAT in MALAYSIA
Report Time2017-06-23 22:00:00
UTC Time2017-06-23 22:30:32
Flight Rules vfr VFR
Wind290° at 01 kt
W.Rank290° ranks 18
Current wind is below 290° avg. (3.8)
Visibility9999 m
Phenomena:N/A
Clouds:Few 014 Hf
Scattered 140 Hf
Broken 270 Hf
Expected CloudBase > 400 ft AGL from Temp-Dew spread
Ceiling27,000 ft
Temp23°C (ISA +8)
Dew Point22°C (94% RH)
QNH1008 hPa
Density Alt1,467 ft
Elevation16 ft
Report Wrong Elevation
Raw Report
METAR WBKT 232200Z 29001KT 9999 FEW014 SCT140 BKN270 23/22 Q1008=

Extra information for WBKT:More info

Metar Taf Metar & Taf Last 4 Metars F.Rules Stats Wind Profile Meteogram Temp Stats Airport Information Weather charts Add Link Nearby VenuesMetar ALERT Operation Metar Decoded Social comments